KCRW METAR and TAF | Updated Today

KCRW METAR

Yeager Airport

Observation time: 7 min. ago

KCRW 301754Z COR 25010G16KT 10SM FEW200 13/01 A3000 RMK AO2 SLP162 T01280006 50004 PNO $

Need help? Read our tutorial on how to read METARs or read the parsed version below.

Yeager Airport (KCRW) METAR

  • Weather conditions on Tue, 30 Nov 2021 17:54:00 +0000 (7 min. ago):
  • Present conditions: Dry
  • Clouds: A few at 6096 meters
  • Visibility: 16093 meters
  • Wind: 250 degrees at 10 knots
  • Temperature: 13 celsius
  • Dew point: 1 celsius
  • Pressure: 30 inHg
  • Remarks: AO2 SLP162 T01280006 50004 PNO $


Useful to know...

KCRW TAF

Yeager Airport

KCRW 301720Z 3018/0118 26009G17KT P6SM FEW200 FM302100 27007KT P6SM FEW250 FM302300 25004KT P6SM SKC FM010100 00000KT P6SM SKC
Observation time: 41 min. ago
Need help? Read our tutorial on how to read TAFs or read the parsed version below.

Parsed version of TAF for Yeager Airport (KCRW)

  • From 30 November at 18:00 UTC, to day 01 of the month at 18:00 UTC
  • Clouds: A few at 6096 meters
  • Wind: 260 degrees at 9
  • From day 30 of the month at 21:00 UTC
  • Clouds: A few at 7620 meters
  • Wind: 270 degrees at 7
  • From day 30 of the month at 23:00 UTC
  • Clouds: No significant changes expected
  • Wind: 250 degrees at 4
  • From day 1 of the month at 01:00 UTC
  • Clouds: No significant changes expected